Terminal Aerodrome Forecast
Issued by NWS Cleveland, OH

Home | Current Version | Previous Version | Graphics & Text | Print | Product List | Glossary Off
Versions: 1 2 3 4 5 6 7 8 9 10 11 12 13

030
FTUS41 KCLE 280535
TAFERI
TAF
KERI 280535Z 2806/2906 18003KT P6SM SCT250
     FM281600 34007KT P6SM BKN250
     FM290000 VRB05KT P6SM BKN200=

USA.gov is the U.S. government's official web portal to all federal, state and local government web resources and services.